createdAt,value
2018-08-19T00:00:26.618Z,67.50
2018-08-19T00:02:58.734Z,67.70
2018-08-19T00:05:27.141Z,67.60
2018-08-19T00:07:55.573Z,67.30
2018-08-19T00:10:38.417Z,67.40
2018-08-19T00:13:08.101Z,67.80
2018-08-19T00:15:37.286Z,67.90
2018-08-19T00:18:07.374Z,67.90
2018-08-19T00:20:35.720Z,67.90
2018-08-19T00:23:04.295Z,67.80
2018-08-19T00:25:42.607Z,67.80
2018-08-19T00:28:12.661Z,67.90
2018-08-19T00:30:40.981Z,67.60
2018-08-19T00:33:09.906Z,67.60
2018-08-19T00:35:38.273Z,67.50
2018-08-19T00:38:11.143Z,67.60
2018-08-19T00:40:39.992Z,67.90
2018-08-19T00:43:08.397Z,67.80
2018-08-19T00:45:36.957Z,67.50
2018-08-19T00:48:05.364Z,67.60
2018-08-19T00:50:33.675Z,67.60
2018-08-19T00:53:01.992Z,67.80
2018-08-19T00:55:36.534Z,67.40
2018-08-19T00:58:12.472Z,67.40
2018-08-19T01:00:40.820Z,67.20
2018-08-19T01:03:10.143Z,68.00
2018-08-19T01:05:38.528Z,67.00
2018-08-19T01:08:07.059Z,67.20
2018-08-19T01:10:35.347Z,67.40
2018-08-19T01:13:03.727Z,67.70
2018-08-19T01:15:32.168Z,67.60
2018-08-19T01:18:00.541Z,67.60
2018-08-19T01:20:28.843Z,67.50
2018-08-19T01:22:57.165Z,67.70
2018-08-19T01:25:25.541Z,67.50
2018-08-19T01:27:53.962Z,67.60
2018-08-19T01:30:25.739Z,67.80
2018-08-19T01:32:54.106Z,67.70
2018-08-19T01:35:32.477Z,68.30
2018-08-19T01:38:00.880Z,68.30
2018-08-19T01:40:29.220Z,68.20
2018-08-19T01:42:57.532Z,68.30
2018-08-19T01:45:25.982Z,68.30
2018-08-19T01:47:54.344Z,68.00
2018-08-19T01:50:22.658Z,67.70
2018-08-19T01:52:51.123Z,67.80
2018-08-19T01:55:19.729Z,67.80
2018-08-19T01:57:50.867Z,68.00
2018-08-19T02:00:19.632Z,67.50
2018-08-19T02:02:57.522Z,67.70
2018-08-19T02:05:26.240Z,67.80
2018-08-19T02:07:56.987Z,67.80
2018-08-19T02:10:25.850Z,68.00
2018-08-19T02:12:55.349Z,67.80
2018-08-19T02:15:24.870Z,67.90
2018-08-19T02:17:59.169Z,67.60
2018-08-19T02:20:34.767Z,67.50
2018-08-19T02:23:10.748Z,67.70
2018-08-19T02:25:42.198Z,67.80
2018-08-19T02:28:10.986Z,68.00
2018-08-19T02:31:02.421Z,68.60
2018-08-19T02:33:33.146Z,68.20
2018-08-19T02:36:03.469Z,68.20
2018-08-19T02:38:32.045Z,68.90
2018-08-19T02:41:00.356Z,68.10
2018-08-19T02:43:28.818Z,67.90
2018-08-19T02:45:57.113Z,68.00
2018-08-19T02:48:41.070Z,67.60
2018-08-19T02:51:10.706Z,67.70
2018-08-19T02:53:39.018Z,67.60
2018-08-19T02:56:07.361Z,67.80
2018-08-19T02:58:35.633Z,67.40
2018-08-19T03:01:03.975Z,67.70
2018-08-19T03:03:32.250Z,67.70
2018-08-19T03:06:01.910Z,68.00
2018-08-19T03:08:31.000Z,67.90
2018-08-19T03:10:59.460Z,67.80
2018-08-19T03:13:27.912Z,67.80
2018-08-19T03:15:56.852Z,68.00
2018-08-19T03:18:25.495Z,68.00
2018-08-19T03:20:53.826Z,68.00
2018-08-19T03:23:22.171Z,67.80
2018-08-19T03:25:50.524Z,67.70
2018-08-19T03:28:18.826Z,68.20
2018-08-19T03:30:53.321Z,67.70
2018-08-19T03:33:21.634Z,67.80
2018-08-19T03:35:50.027Z,68.20
2018-08-19T03:38:18.343Z,68.20
2018-08-19T03:40:46.647Z,68.10
2018-08-19T03:43:14.978Z,68.20
2018-08-19T03:45:43.317Z,68.20
2018-08-19T03:48:11.673Z,68.90
2018-08-19T03:50:40.200Z,68.20
2018-08-19T03:53:08.512Z,68.40
2018-08-19T03:55:37.918Z,68.60
2018-08-19T03:58:08.346Z,68.80
2018-08-19T04:00:38.491Z,68.60
2018-08-19T04:03:14.426Z,68.80
2018-08-19T04:05:46.262Z,69.10
2018-08-19T04:08:16.014Z,69.10
2018-08-19T04:10:47.541Z,68.80
2018-08-19T04:13:41.581Z,69.00
2018-08-19T04:16:12.757Z,69.00
2018-08-19T04:18:45.473Z,69.30
2018-08-19T04:21:17.701Z,69.30
2018-08-19T04:23:49.889Z,69.40
2018-08-19T04:26:19.524Z,69.70
2018-08-19T04:28:48.417Z,69.50
2018-08-19T04:31:22.077Z,69.20
2018-08-19T04:33:51.634Z,69.50
2018-08-19T04:36:25.347Z,69.50
2018-08-19T04:38:54.541Z,69.50
2018-08-19T04:41:23.702Z,69.50
2018-08-19T04:43:54.351Z,69.50
2018-08-19T04:46:23.938Z,69.50
2018-08-19T04:48:53.961Z,69.50
2018-08-19T04:51:23.827Z,69.60
2018-08-19T04:53:56.311Z,69.60
2018-08-19T04:56:25.437Z,70.00
2018-08-19T04:58:55.406Z,69.90
2018-08-19T05:01:24.406Z,70.10
2018-08-19T05:03:54.858Z,70.00
2018-08-19T05:06:23.392Z,69.90
2018-08-19T05:08:51.858Z,70.10
2018-08-19T05:11:21.291Z,70.10
2018-08-19T05:13:50.093Z,69.90
2018-08-19T05:16:18.813Z,70.20
2018-08-19T05:18:52.660Z,70.00
2018-08-19T05:21:27.726Z,70.40
2018-08-19T05:23:57.290Z,70.20
2018-08-19T05:26:26.130Z,70.40
2018-08-19T05:29:06.174Z,70.60
2018-08-19T05:31:39.012Z,70.80
2018-08-19T05:34:12.971Z,70.60
2018-08-19T05:36:41.712Z,70.40
2018-08-19T05:39:10.643Z,71.20
2018-08-19T05:41:38.976Z,70.60
2018-08-19T05:44:07.914Z,70.50
2018-08-19T05:46:37.179Z,70.50
2018-08-19T05:49:06.534Z,70.60
2018-08-19T05:51:38.981Z,70.50
2018-08-19T05:54:08.991Z,70.80
2018-08-19T05:56:38.758Z,70.70
2018-08-19T05:59:07.318Z,70.60
2018-08-19T06:01:37.315Z,70.80
2018-08-19T06:04:05.983Z,70.80
2018-08-19T06:06:35.262Z,70.90
2018-08-19T06:09:04.593Z,70.60
2018-08-19T06:11:33.561Z,70.60
2018-08-19T06:14:02.457Z,70.50
2018-08-19T06:16:31.759Z,70.80
2018-08-19T06:19:01.539Z,71.60
2018-08-19T06:21:31.853Z,70.60
2018-08-19T06:24:00.642Z,70.90
2018-08-19T06:26:34.843Z,70.70
2018-08-19T06:29:03.659Z,70.70
2018-08-19T06:31:32.459Z,70.80
2018-08-19T06:34:01.044Z,70.70
2018-08-19T06:36:29.451Z,70.40
2018-08-19T06:38:57.765Z,71.20
2018-08-19T06:41:26.517Z,70.70
2018-08-19T06:43:54.765Z,70.70
2018-08-19T06:46:23.021Z,70.50
2018-08-19T06:48:51.344Z,70.70
2018-08-19T06:51:19.664Z,70.50
2018-08-19T06:53:48.716Z,70.10
2018-08-19T06:56:17.075Z,70.20
2018-08-19T06:58:45.441Z,70.50
2018-08-19T07:01:13.737Z,70.50
2018-08-19T07:03:46.805Z,70.70
2018-08-19T07:06:15.436Z,71.00
2018-08-19T07:08:43.690Z,70.90
2018-08-19T07:11:12.061Z,71.60
2018-08-19T07:13:40.347Z,70.90
2018-08-19T07:16:08.638Z,71.00
2018-08-19T07:18:37.066Z,70.90
2018-08-19T07:21:05.462Z,70.80
2018-08-19T07:23:34.572Z,70.60
2018-08-19T07:26:02.894Z,71.00
2018-08-19T07:28:31.172Z,70.90
2018-08-19T07:30:59.443Z,70.80
2018-08-19T07:33:28.563Z,70.70
2018-08-19T07:35:56.851Z,70.90
2018-08-19T07:38:25.143Z,70.70
2018-08-19T07:40:54.574Z,70.90
2018-08-19T07:43:22.834Z,70.60
2018-08-19T07:45:51.263Z,70.90
2018-08-19T07:48:19.617Z,70.70
2018-08-19T07:50:47.909Z,70.80
2018-08-19T07:53:16.189Z,70.90
2018-08-19T07:55:44.704Z,71.20
2018-08-19T07:58:13.007Z,71.30
2018-08-19T08:00:41.915Z,71.50
2018-08-19T08:03:10.334Z,71.20
2018-08-19T08:05:46.961Z,71.20
2018-08-19T08:08:15.289Z,72.00
2018-08-19T08:10:43.630Z,71.50
2018-08-19T08:13:13.022Z,70.80
2018-08-19T08:15:47.015Z,70.50
2018-08-19T08:18:15.435Z,70.60
2018-08-19T08:20:43.997Z,70.50
2018-08-19T08:23:18.243Z,70.50
2018-08-19T08:25:47.958Z,71.30
2018-08-19T08:28:16.860Z,70.70
2018-08-19T08:30:45.490Z,70.70
2018-08-19T08:33:13.870Z,70.40
2018-08-19T08:35:47.918Z,70.20
2018-08-19T08:38:17.810Z,70.30
2018-08-19T08:40:47.167Z,70.70
2018-08-19T08:43:15.398Z,70.80
2018-08-19T08:45:44.168Z,70.70
2018-08-19T08:48:12.512Z,70.60
2018-08-19T08:50:40.816Z,70.50
2018-08-19T08:53:09.461Z,70.20
2018-08-19T08:55:37.933Z,70.20
2018-08-19T08:58:06.957Z,70.00
2018-08-19T09:00:35.855Z,70.10
2018-08-19T09:03:04.588Z,70.10
2018-08-19T09:05:33.084Z,70.20
2018-08-19T09:08:01.594Z,70.20
2018-08-19T09:10:30.103Z,69.60
2018-08-19T09:12:58.595Z,70.50
2018-08-19T09:15:27.416Z,70.10
2018-08-19T09:17:56.029Z,70.10
2018-08-19T09:20:24.901Z,70.00
2018-08-19T09:22:55.222Z,69.90
2018-08-19T09:25:23.604Z,69.90
2018-08-19T09:27:52.180Z,69.60
2018-08-19T09:30:29.977Z,69.70
2018-08-19T09:32:59.548Z,69.40
2018-08-19T09:35:32.464Z,68.90
2018-08-19T09:38:06.242Z,68.40
2018-08-19T09:40:35.428Z,68.70
2018-08-19T09:43:03.878Z,68.60
2018-08-19T09:45:32.622Z,68.70
2018-08-19T09:48:02.828Z,68.70
2018-08-19T09:50:34.717Z,68.40
2018-08-19T09:53:05.290Z,68.40
2018-08-19T09:55:44.293Z,68.70
2018-08-19T09:58:21.675Z,68.10
2018-08-19T10:00:56.151Z,68.00
2018-08-19T10:03:24.901Z,67.80
2018-08-19T10:05:54.109Z,67.40
2018-08-19T10:08:24.707Z,68.20
2018-08-19T10:10:53.060Z,67.00
2018-08-19T10:13:21.411Z,67.10
2018-08-19T10:15:51.240Z,67.60
2018-08-19T10:18:20.248Z,67.70
2018-08-19T10:20:48.778Z,67.70
2018-08-19T10:23:17.007Z,67.60
2018-08-19T10:25:45.720Z,67.70
2018-08-19T10:28:14.069Z,67.70
2018-08-19T10:30:48.374Z,67.90
2018-08-19T10:33:18.091Z,68.00
2018-08-19T10:35:47.813Z,67.50
2018-08-19T10:38:16.295Z,67.40
2018-08-19T10:41:08.839Z,66.70
2018-08-19T10:43:37.410Z,66.90
2018-08-19T10:46:12.489Z,67.00
2018-08-19T10:48:41.260Z,66.90
2018-08-19T10:51:10.496Z,66.70
2018-08-19T10:53:39.680Z,66.20
2018-08-19T10:56:08.148Z,66.00
2018-08-19T10:58:37.746Z,65.50
2018-08-19T11:01:13.307Z,65.20
2018-08-19T11:03:42.254Z,66.00
2018-08-19T11:06:13.326Z,65.20
2018-08-19T11:08:50.433Z,65.30
2018-08-19T11:11:19.229Z,65.10
2018-08-19T11:13:48.811Z,65.10
2018-08-19T11:16:18.409Z,64.50
2018-08-19T11:18:49.272Z,64.40
2018-08-19T11:21:32.052Z,63.80
2018-08-19T11:24:01.125Z,63.90
2018-08-19T11:26:29.596Z,64.10
2018-08-19T11:29:03.363Z,63.90
2018-08-19T11:31:33.886Z,64.30
2018-08-19T11:34:08.498Z,64.10
2018-08-19T11:36:42.014Z,63.00
2018-08-19T11:39:12.228Z,63.20
2018-08-19T11:41:40.586Z,62.60
2018-08-19T11:44:14.018Z,62.50
2018-08-19T11:46:42.326Z,62.80
2018-08-19T11:49:12.786Z,63.10
2018-08-19T11:51:51.009Z,62.50
2018-08-19T11:54:20.261Z,62.90
2018-08-19T11:56:59.319Z,62.70
2018-08-19T11:59:33.090Z,63.10
2018-08-19T12:02:02.117Z,62.50
2018-08-19T12:04:30.895Z,62.80
2018-08-19T12:06:59.560Z,62.50
2018-08-19T12:09:28.369Z,62.50
2018-08-19T12:12:00.027Z,62.60
2018-08-19T12:14:35.482Z,62.20
2018-08-19T12:17:11.552Z,62.40
2018-08-19T12:19:44.154Z,62.10
2018-08-19T12:22:14.209Z,61.80
2018-08-19T12:24:48.233Z,61.10
2018-08-19T12:27:21.007Z,61.90
2018-08-19T12:29:50.046Z,62.00
2018-08-19T12:32:26.376Z,60.60
2018-08-19T12:35:00.812Z,61.80
2018-08-19T12:37:31.698Z,61.90
2018-08-19T12:40:19.284Z,61.40
2018-08-19T12:42:54.628Z,61.40
2018-08-19T12:45:23.986Z,60.70
2018-08-19T12:47:53.202Z,60.60
2018-08-19T12:50:24.760Z,60.30
2018-08-19T12:52:54.068Z,60.70
2018-08-19T12:55:26.723Z,60.50
2018-08-19T12:58:00.996Z,60.10
2018-08-19T13:00:29.993Z,60.80
2018-08-19T13:02:58.725Z,60.90
2018-08-19T13:05:28.919Z,60.10
2018-08-19T13:07:57.514Z,60.70
2018-08-19T13:10:34.410Z,60.60
2018-08-19T13:13:02.789Z,60.50
2018-08-19T13:15:31.750Z,60.50
2018-08-19T13:18:00.081Z,59.90
2018-08-19T13:20:28.541Z,60.40
2018-08-19T13:23:00.115Z,60.30
2018-08-19T13:25:29.478Z,60.40
2018-08-19T13:27:57.754Z,59.60
2018-08-19T13:30:26.809Z,59.70
2018-08-19T13:32:55.178Z,59.30
2018-08-19T13:35:24.645Z,59.90
2018-08-19T13:37:53.092Z,60.40
2018-08-19T13:40:21.813Z,60.00
2018-08-19T13:42:51.461Z,59.90
2018-08-19T13:45:20.956Z,59.70
2018-08-19T13:47:54.266Z,59.60
2018-08-19T13:50:22.696Z,59.80
2018-08-19T13:52:51.187Z,60.10
2018-08-19T13:55:20.403Z,59.50
2018-08-19T13:57:49.012Z,59.80
2018-08-19T14:00:18.577Z,59.60
2018-08-19T14:02:48.619Z,59.60
2018-08-19T14:05:17.542Z,59.90
2018-08-19T14:07:45.814Z,59.70
2018-08-19T14:10:15.883Z,59.80
2018-08-19T14:12:44.454Z,59.40
2018-08-19T14:15:12.722Z,59.50
2018-08-19T14:17:41.005Z,59.60
2018-08-19T14:20:10.624Z,59.60
2018-08-19T14:22:39.180Z,59.40
2018-08-19T14:25:08.906Z,59.90
2018-08-19T14:27:37.326Z,59.50
2018-08-19T14:32:46.521Z,59.80
2018-08-19T14:35:14.776Z,60.20
2018-08-19T14:37:43.154Z,59.70
2018-08-19T14:40:15.079Z,59.40
2018-08-19T14:42:43.325Z,59.60
2018-08-19T14:45:12.489Z,59.80
2018-08-19T14:47:40.736Z,59.90
2018-08-19T14:50:11.618Z,59.60
2018-08-19T14:52:39.878Z,60.00
2018-08-19T14:55:08.669Z,59.90
2018-08-19T14:57:37.136Z,59.90
2018-08-19T15:00:08.568Z,60.00
2018-08-19T15:02:37.240Z,59.70
2018-08-19T15:05:05.702Z,59.60
2018-08-19T15:07:33.960Z,59.70
2018-08-19T15:10:02.330Z,60.20
2018-08-19T15:12:30.578Z,60.00
2018-08-19T15:15:00.051Z,60.60
2018-08-19T15:17:28.498Z,60.30
2018-08-19T15:20:00.212Z,59.70
2018-08-19T15:22:28.640Z,60.10
2018-08-19T15:24:56.978Z,60.10
2018-08-19T15:27:25.360Z,60.30
2018-08-19T15:29:54.784Z,61.10
2018-08-19T15:32:24.903Z,60.70
2018-08-19T15:34:53.259Z,61.40
2018-08-19T15:37:22.819Z,60.40
2018-08-19T15:56:32.166Z,61.30
2018-08-19T16:12:56.891Z,63.80
2018-08-19T16:15:26.960Z,64.80
2018-08-19T16:17:56.998Z,65.10
2018-08-19T16:20:26.146Z,65.40
2018-08-19T16:22:56.993Z,65.20
2018-08-19T16:25:25.752Z,66.10
2018-08-19T16:27:55.700Z,65.80
2018-08-19T16:30:24.396Z,65.90
2018-08-19T16:32:53.115Z,66.60
2018-08-19T16:35:23.439Z,66.70
2018-08-19T16:37:52.183Z,66.80
2018-08-19T16:40:20.797Z,66.80
2018-08-19T16:42:49.670Z,67.10
2018-08-19T16:45:18.385Z,67.10
2018-08-19T16:47:47.232Z,67.20
2018-08-19T16:50:15.843Z,67.50
2018-08-19T16:52:45.264Z,67.50
2018-08-19T16:55:13.901Z,67.70
2018-08-19T16:57:42.647Z,67.30
2018-08-19T17:00:11.393Z,67.30
2018-08-19T17:02:40.933Z,67.60
2018-08-19T17:05:20.836Z,68.20
2018-08-19T17:07:49.632Z,67.30
2018-08-19T17:10:25.587Z,67.40
2018-08-19T17:12:54.117Z,67.30
2018-08-19T17:15:22.826Z,67.30
2018-08-19T17:17:51.376Z,67.60
2018-08-19T17:20:19.822Z,67.50
2018-08-19T17:22:48.858Z,66.70
2018-08-19T17:25:17.432Z,66.70
2018-08-19T17:27:45.986Z,66.80
2018-08-19T17:30:27.029Z,67.30
2018-08-19T17:33:05.778Z,67.60
2018-08-19T17:35:34.670Z,67.30
2018-08-19T17:38:03.234Z,67.20
2018-08-19T17:40:33.450Z,67.80
2018-08-19T17:43:06.817Z,67.30
2018-08-19T17:45:35.564Z,67.10
2018-08-19T17:48:05.468Z,67.30
2018-08-19T17:50:41.249Z,67.20
2018-08-19T17:53:09.992Z,67.50
2018-08-19T17:55:42.096Z,67.80
2018-08-19T17:58:14.207Z,67.70
2018-08-19T18:00:43.799Z,67.80
2018-08-19T18:03:13.107Z,67.90
2018-08-19T18:05:44.287Z,68.00
2018-08-19T18:08:21.233Z,68.10
2018-08-19T18:11:02.544Z,68.10
2018-08-19T18:13:33.946Z,68.30
2018-08-19T18:16:04.035Z,68.00
2018-08-19T18:18:32.662Z,68.20
2018-08-19T18:21:04.153Z,67.80
2018-08-19T18:23:33.912Z,67.70
2018-08-19T18:26:02.731Z,68.00
2018-08-19T18:28:32.348Z,67.90
2018-08-19T18:33:52.091Z,67.90
2018-08-19T18:36:22.924Z,67.80
2018-08-19T18:38:52.273Z,67.70
2018-08-19T18:41:26.821Z,68.00
2018-08-19T18:43:59.903Z,68.00
2018-08-19T18:46:28.909Z,68.20
2018-08-19T18:49:13.753Z,68.10
2018-08-19T18:51:44.293Z,68.10
2018-08-19T18:54:24.440Z,68.40
2018-08-19T18:56:54.570Z,68.40
2018-08-19T18:59:23.175Z,68.50
2018-08-19T19:01:51.866Z,68.90
2018-08-19T19:04:20.880Z,68.80
2018-08-19T19:06:49.754Z,69.30
2018-08-19T19:09:20.904Z,69.30
2018-08-19T19:11:52.204Z,69.20
2018-08-19T19:14:21.839Z,69.30
2018-08-19T19:16:52.223Z,69.50
2018-08-19T19:19:20.812Z,69.60
2018-08-19T19:21:53.145Z,69.70
2018-08-19T19:24:28.852Z,70.00
2018-08-19T19:26:57.323Z,69.40
2018-08-19T19:29:27.878Z,70.00
2018-08-19T19:31:58.892Z,70.50
2018-08-19T19:34:30.871Z,70.70
2018-08-19T19:37:01.269Z,70.70
2018-08-19T19:39:29.840Z,70.60
2018-08-19T19:42:03.475Z,70.90
2018-08-19T19:44:34.631Z,71.10
2018-08-19T19:47:04.027Z,70.80
2018-08-19T19:49:33.958Z,70.50
2018-08-19T19:52:03.976Z,70.70
2018-08-19T19:54:36.197Z,70.80
2018-08-19T19:57:04.692Z,70.90
2018-08-19T19:59:34.464Z,70.70
2018-08-19T20:02:03.479Z,70.40
2018-08-19T20:04:37.272Z,70.60
2018-08-19T20:07:06.420Z,70.70
2018-08-19T20:09:37.204Z,70.70
2018-08-19T20:12:08.242Z,70.60
2018-08-19T20:14:40.991Z,70.50
2018-08-19T20:17:09.474Z,70.80
2018-08-19T20:19:37.876Z,71.00
2018-08-19T20:22:13.195Z,71.30
2018-08-19T20:24:41.709Z,71.50
2018-08-19T20:27:11.215Z,71.10
2018-08-19T20:29:41.662Z,71.40
2018-08-19T20:32:11.186Z,71.30
2018-08-19T20:34:39.894Z,71.30
2018-08-19T20:37:10.338Z,71.40
2018-08-19T20:39:40.304Z,71.40
2018-08-19T20:42:09.430Z,71.50
2018-08-19T20:44:38.308Z,71.80
2018-08-19T20:47:08.570Z,71.90
2018-08-19T20:49:38.077Z,71.90
2018-08-19T20:52:06.705Z,71.80
2018-08-19T20:54:35.527Z,71.70
2018-08-19T20:57:04.775Z,71.60
2018-08-19T20:59:37.173Z,71.40
2018-08-19T21:02:07.504Z,71.80
2018-08-19T21:04:36.059Z,72.10
2018-08-19T21:07:07.225Z,71.70
2018-08-19T21:09:36.391Z,71.80
2018-08-19T21:12:05.900Z,71.80
2018-08-19T21:14:34.614Z,71.70
2018-08-19T21:17:04.708Z,72.60
2018-08-19T21:19:33.841Z,71.60
2018-08-19T21:22:02.411Z,71.70
2018-08-19T21:24:32.151Z,71.90
2018-08-19T21:27:02.494Z,72.10
2018-08-19T21:29:34.174Z,72.00
2018-08-19T21:32:03.283Z,72.20
2018-08-19T21:34:38.262Z,72.20
2018-08-19T21:37:06.788Z,72.20
2018-08-19T21:39:35.420Z,72.30
2018-08-19T21:42:04.030Z,72.60
2018-08-19T21:44:32.650Z,72.50
2018-08-19T21:47:01.150Z,72.60
2018-08-19T21:49:29.681Z,72.50
2018-08-19T21:51:58.137Z,72.60
2018-08-19T21:54:28.490Z,72.90
2018-08-19T21:56:57.775Z,72.70
2018-08-19T21:59:26.409Z,72.90
2018-08-19T22:01:57.870Z,72.90
2018-08-19T22:04:26.631Z,73.00
2018-08-19T22:06:55.324Z,72.90
2018-08-19T22:09:30.437Z,72.90
2018-08-19T22:12:00.509Z,73.00
2018-08-19T22:14:29.363Z,73.30
2018-08-19T22:17:12.506Z,72.80
2018-08-19T22:22:24.236Z,72.50
2018-08-19T22:24:52.799Z,73.30
2018-08-19T22:27:22.048Z,73.40
2018-08-19T22:29:50.485Z,73.40
2018-08-19T22:32:19.247Z,73.40
2018-08-19T22:34:47.807Z,73.40
2018-08-19T22:37:16.429Z,73.40
2018-08-19T22:39:46.365Z,73.40
2018-08-19T22:42:14.738Z,73.80
2018-08-19T22:44:43.166Z,73.60
2018-08-19T22:47:11.615Z,73.60
2018-08-19T22:49:40.031Z,73.60
2018-08-19T22:52:19.825Z,73.60
2018-08-19T22:54:50.066Z,74.00
2018-08-19T22:57:18.509Z,74.60
2018-08-19T22:59:46.962Z,74.50
2018-08-19T23:02:17.500Z,74.40
2018-08-19T23:04:46.645Z,74.40
2018-08-19T23:07:15.173Z,74.20
2018-08-19T23:09:43.571Z,74.10
2018-08-19T23:12:12.035Z,74.30
2018-08-19T23:14:51.630Z,74.30
2018-08-19T23:17:20.028Z,74.20
2018-08-19T23:19:49.557Z,74.40
2018-08-19T23:22:18.188Z,74.50
2018-08-19T23:24:46.944Z,74.60
2018-08-19T23:27:15.458Z,75.00
2018-08-19T23:29:43.895Z,74.90
2018-08-19T23:32:12.312Z,74.90
2018-08-19T23:34:40.875Z,75.10
2018-08-19T23:37:09.319Z,74.90
2018-08-19T23:39:37.765Z,74.80
2018-08-19T23:42:06.216Z,74.80
2018-08-19T23:44:34.648Z,74.60
2018-08-19T23:47:03.086Z,74.80
2018-08-19T23:49:31.574Z,75.00
2018-08-19T23:51:59.999Z,75.20
2018-08-19T23:54:28.455Z,75.40
2018-08-19T23:56:56.882Z,75.30
2018-08-19T23:59:31.509Z,75.30
